sensor_id;sensor_type;location;lat;lon;timestamp;temperature;humidity
64997;SHT31;51545;51.568;6.998;2023-07-31T00:02:05;15.36;99.99
64997;SHT31;51545;51.568;6.998;2023-07-31T00:04:30;15.39;99.99
64997;SHT31;51545;51.568;6.998;2023-07-31T00:06:56;15.28;99.99
64997;SHT31;51545;51.568;6.998;2023-07-31T00:09:21;15.28;99.99
64997;SHT31;51545;51.568;6.998;2023-07-31T00:11:47;15.39;99.99
64997;SHT31;51545;51.568;6.998;2023-07-31T00:14:12;15.39;99.99
64997;SHT31;51545;51.568;6.998;2023-07-31T00:16:38;15.49;99.99
64997;SHT31;51545;51.568;6.998;2023-07-31T00:19:03;15.60;99.99
64997;SHT31;51545;51.568;6.998;2023-07-31T00:21:29;15.66;99.99
64997;SHT31;51545;51.568;6.998;2023-07-31T00:23:54;15.81;99.99
64997;SHT31;51545;51.568;6.998;2023-07-31T00:26:20;15.81;99.99
64997;SHT31;51545;51.568;6.998;2023-07-31T00:28:45;15.92;99.99
64997;SHT31;51545;51.568;6.998;2023-07-31T00:31:11;15.99;99.99
64997;SHT31;51545;51.568;6.998;2023-07-31T00:33:37;15.98;99.99
64997;SHT31;51545;51.568;6.998;2023-07-31T00:36:03;16.05;99.99
64997;SHT31;51545;51.568;6.998;2023-07-31T00:38:28;16.09;99.99
64997;SHT31;51545;51.568;6.998;2023-07-31T00:40:54;16.06;99.99
64997;SHT31;51545;51.568;6.998;2023-07-31T00:43:19;16.12;99.99
64997;SHT31;51545;51.568;6.998;2023-07-31T00:45:44;16.11;99.99
64997;SHT31;51545;51.568;6.998;2023-07-31T00:48:10;16.09;99.99
64997;SHT31;51545;51.568;6.998;2023-07-31T00:50:36;16.14;99.99
64997;SHT31;51545;51.568;6.998;2023-07-31T00:53:02;16.15;99.99
64997;SHT31;51545;51.568;6.998;2023-07-31T00:55:28;16.19;99.99
64997;SHT31;51545;51.568;6.998;2023-07-31T00:57:54;16.18;99.99
64997;SHT31;51545;51.568;6.998;2023-07-31T01:00:21;16.19;99.99
64997;SHT31;51545;51.568;6.998;2023-07-31T01:02:46;16.19;99.99
64997;SHT31;51545;51.568;6.998;2023-07-31T01:05:16;16.19;99.99
64997;SHT31;51545;51.568;6.998;2023-07-31T01:07:52;16.24;99.99
64997;SHT31;51545;51.568;6.998;2023-07-31T01:10:26;16.24;99.99
64997;SHT31;51545;51.568;6.998;2023-07-31T01:12:56;16.25;99.99
64997;SHT31;51545;51.568;6.998;2023-07-31T01:15:22;16.25;99.99
64997;SHT31;51545;51.568;6.998;2023-07-31T01:17:48;16.25;99.99
64997;SHT31;51545;51.568;6.998;2023-07-31T01:20:14;16.26;99.99
64997;SHT31;51545;51.568;6.998;2023-07-31T01:22:48;16.25;99.99
64997;SHT31;51545;51.568;6.998;2023-07-31T01:28:11;16.25;99.99
64997;SHT31;51545;51.568;6.998;2023-07-31T01:30:41;16.29;99.99
64997;SHT31;51545;51.568;6.998;2023-07-31T01:33:09;16.30;99.99
64997;SHT31;51545;51.568;6.998;2023-07-31T01:35:36;16.25;99.99
64997;SHT31;51545;51.568;6.998;2023-07-31T01:38:02;16.26;99.99
64997;SHT31;51545;51.568;6.998;2023-07-31T01:40:29;16.29;99.99
64997;SHT31;51545;51.568;6.998;2023-07-31T01:42:55;16.24;99.99
64997;SHT31;51545;51.568;6.998;2023-07-31T01:45:20;16.26;99.99
64997;SHT31;51545;51.568;6.998;2023-07-31T01:47:46;16.22;99.99
64997;SHT31;51545;51.568;6.998;2023-07-31T01:50:12;16.25;99.99
64997;SHT31;51545;51.568;6.998;2023-07-31T01:52:37;16.22;99.99
64997;SHT31;51545;51.568;6.998;2023-07-31T01:55:03;16.21;99.99
64997;SHT31;51545;51.568;6.998;2023-07-31T01:57:28;16.24;99.99
64997;SHT31;51545;51.568;6.998;2023-07-31T01:59:54;16.21;99.99
64997;SHT31;51545;51.568;6.998;2023-07-31T02:02:20;16.18;99.99
64997;SHT31;51545;51.568;6.998;2023-07-31T02:04:46;16.22;99.99
64997;SHT31;51545;51.568;6.998;2023-07-31T02:07:11;16.22;99.76
64997;SHT31;51545;51.568;6.998;2023-07-31T02:09:37;16.24;99.49
64997;SHT31;51545;51.568;6.998;2023-07-31T02:12:02;16.21;99.64
64997;SHT31;51545;51.568;6.998;2023-07-31T02:14:28;16.19;99.16
64997;SHT31;51545;51.568;6.998;2023-07-31T02:16:54;16.25;98.91
64997;SHT31;51545;51.568;6.998;2023-07-31T02:19:20;16.21;99.09
64997;SHT31;51545;51.568;6.998;2023-07-31T02:21:46;16.21;98.82
64997;SHT31;51545;51.568;6.998;2023-07-31T02:24:12;16.21;98.60
64997;SHT31;51545;51.568;6.998;2023-07-31T02:26:39;16.21;98.58
64997;SHT31;51545;51.568;6.998;2023-07-31T02:29:05;16.22;98.03
64997;SHT31;51545;51.568;6.998;2023-07-31T02:31:30;16.21;98.61
64997;SHT31;51545;51.568;6.998;2023-07-31T02:33:56;16.21;98.45
64997;SHT31;51545;51.568;6.998;2023-07-31T02:36:21;16.18;99.34
64997;SHT31;51545;51.568;6.998;2023-07-31T02:38:47;16.19;98.49
64997;SHT31;51545;51.568;6.998;2023-07-31T02:41:12;16.19;98.21
64997;SHT31;51545;51.568;6.998;2023-07-31T02:43:37;16.16;98.55
64997;SHT31;51545;51.568;6.998;2023-07-31T02:46:03;16.21;97.73
64997;SHT31;51545;51.568;6.998;2023-07-31T02:48:28;16.21;97.80
64997;SHT31;51545;51.568;6.998;2023-07-31T02:50:54;16.19;97.93
64997;SHT31;51545;51.568;6.998;2023-07-31T02:53:19;16.28;97.34
64997;SHT31;51545;51.568;6.998;2023-07-31T02:55:45;16.25;97.52
64997;SHT31;51545;51.568;6.998;2023-07-31T02:58:10;16.24;97.87
64997;SHT31;51545;51.568;6.998;2023-07-31T03:00:36;16.22;97.74
64997;SHT31;51545;51.568;6.998;2023-07-31T03:03:07;16.18;97.59
64997;SHT31;51545;51.568;6.998;2023-07-31T03:05:32;16.25;96.76
64997;SHT31;51545;51.568;6.998;2023-07-31T03:07:58;16.18;96.90
64997;SHT31;51545;51.568;6.998;2023-07-31T03:10:23;16.33;95.54
64997;SHT31;51545;51.568;6.998;2023-07-31T03:12:49;16.26;96.55
64997;SHT31;51545;51.568;6.998;2023-07-31T03:15:14;16.30;96.57
64997;SHT31;51545;51.568;6.998;2023-07-31T03:17:40;16.25;96.35
64997;SHT31;51545;51.568;6.998;2023-07-31T03:20:05;16.30;95.73
64997;SHT31;51545;51.568;6.998;2023-07-31T03:22:31;16.30;96.12
64997;SHT31;51545;51.568;6.998;2023-07-31T03:24:57;16.28;96.42
64997;SHT31;51545;51.568;6.998;2023-07-31T03:27:22;16.33;95.59
64997;SHT31;51545;51.568;6.998;2023-07-31T03:29:48;16.29;96.44
64997;SHT31;51545;51.568;6.998;2023-07-31T03:32:16;16.30;96.40
64997;SHT31;51545;51.568;6.998;2023-07-31T03:34:41;16.30;96.12
64997;SHT31;51545;51.568;6.998;2023-07-31T03:37:07;16.28;96.72
64997;SHT31;51545;51.568;6.998;2023-07-31T03:39:34;16.39;95.73
64997;SHT31;51545;51.568;6.998;2023-07-31T03:42:00;16.32;96.32
64997;SHT31;51545;51.568;6.998;2023-07-31T03:44:25;16.39;96.05
64997;SHT31;51545;51.568;6.998;2023-07-31T03:46:51;16.32;96.54
64997;SHT31;51545;51.568;6.998;2023-07-31T03:49:16;16.35;96.83
64997;SHT31;51545;51.568;6.998;2023-07-31T03:51:42;16.32;96.95
64997;SHT31;51545;51.568;6.998;2023-07-31T03:54:07;16.39;96.38
64997;SHT31;51545;51.568;6.998;2023-07-31T03:56:33;16.40;96.12
64997;SHT31;51545;51.568;6.998;2023-07-31T03:58:59;16.47;96.20
64997;SHT31;51545;51.568;6.998;2023-07-31T04:01:24;16.43;96.18
64997;SHT31;51545;51.568;6.998;2023-07-31T04:03:50;16.47;96.09
64997;SHT31;51545;51.568;6.998;2023-07-31T04:06:15;16.49;96.11
64997;SHT31;51545;51.568;6.998;2023-07-31T04:08:43;16.53;96.22
64997;SHT31;51545;51.568;6.998;2023-07-31T04:11:10;16.52;96.16
64997;SHT31;51545;51.568;6.998;2023-07-31T04:13:37;16.56;95.87
64997;SHT31;51545;51.568;6.998;2023-07-31T04:16:03;16.57;95.65
64997;SHT31;51545;51.568;6.998;2023-07-31T04:18:28;16.61;95.42
64997;SHT31;51545;51.568;6.998;2023-07-31T04:20:56;16.64;95.16
64997;SHT31;51545;51.568;6.998;2023-07-31T04:23:23;16.64;95.55
64997;SHT31;51545;51.568;6.998;2023-07-31T04:25:49;16.68;95.09
64997;SHT31;51545;51.568;6.998;2023-07-31T04:28:14;16.67;95.38
64997;SHT31;51545;51.568;6.998;2023-07-31T04:30:40;16.71;95.01
64997;SHT31;51545;51.568;6.998;2023-07-31T04:33:05;16.74;95.08
64997;SHT31;51545;51.568;6.998;2023-07-31T04:35:30;16.71;95.33
64997;SHT31;51545;51.568;6.998;2023-07-31T04:37:56;16.71;95.75
64997;SHT31;51545;51.568;6.998;2023-07-31T04:40:21;16.75;95.25
64997;SHT31;51545;51.568;6.998;2023-07-31T04:42:47;16.77;95.71
64997;SHT31;51545;51.568;6.998;2023-07-31T04:45:12;16.74;96.01
64997;SHT31;51545;51.568;6.998;2023-07-31T04:47:38;16.71;96.10
64997;SHT31;51545;51.568;6.998;2023-07-31T04:50:03;16.77;96.27
64997;SHT31;51545;51.568;6.998;2023-07-31T04:52:29;16.67;96.82
64997;SHT31;51545;51.568;6.998;2023-07-31T04:54:55;16.67;97.06
64997;SHT31;51545;51.568;6.998;2023-07-31T04:57:20;16.65;97.26
64997;SHT31;51545;51.568;6.998;2023-07-31T04:59:45;16.64;97.15
64997;SHT31;51545;51.568;6.998;2023-07-31T05:02:11;16.64;97.61
64997;SHT31;51545;51.568;6.998;2023-07-31T05:04:38;16.61;97.67
64997;SHT31;51545;51.568;6.998;2023-07-31T05:07:03;16.63;97.45
64997;SHT31;51545;51.568;6.998;2023-07-31T05:09:29;16.67;97.68
64997;SHT31;51545;51.568;6.998;2023-07-31T05:11:55;16.72;97.00
64997;SHT31;51545;51.568;6.998;2023-07-31T05:14:20;16.71;97.59
64997;SHT31;51545;51.568;6.998;2023-07-31T05:16:46;16.74;97.28
64997;SHT31;51545;51.568;6.998;2023-07-31T05:19:11;16.75;97.34
64997;SHT31;51545;51.568;6.998;2023-07-31T05:21:37;16.84;96.66
64997;SHT31;51545;51.568;6.998;2023-07-31T05:24:02;16.84;96.73
64997;SHT31;51545;51.568;6.998;2023-07-31T05:26:28;16.81;97.13
64997;SHT31;51545;51.568;6.998;2023-07-31T05:28:53;16.81;97.13
64997;SHT31;51545;51.568;6.998;2023-07-31T05:31:19;16.87;96.99
64997;SHT31;51545;51.568;6.998;2023-07-31T05:33:45;16.81;97.39
64997;SHT31;51545;51.568;6.998;2023-07-31T05:36:11;16.80;97.61
64997;SHT31;51545;51.568;6.998;2023-07-31T05:38:37;16.72;98.27
64997;SHT31;51545;51.568;6.998;2023-07-31T05:41:02;16.67;98.88
64997;SHT31;51545;51.568;6.998;2023-07-31T05:43:28;16.56;99.95
64997;SHT31;51545;51.568;6.998;2023-07-31T05:45:53;16.57;99.87
64997;SHT31;51545;51.568;6.998;2023-07-31T05:48:18;16.47;99.99
64997;SHT31;51545;51.568;6.998;2023-07-31T05:50:45;16.49;99.99
64997;SHT31;51545;51.568;6.998;2023-07-31T05:53:10;16.46;99.99
64997;SHT31;51545;51.568;6.998;2023-07-31T05:55:36;16.44;99.99
64997;SHT31;51545;51.568;6.998;2023-07-31T05:58:01;16.47;99.99
64997;SHT31;51545;51.568;6.998;2023-07-31T06:00:27;16.56;99.93
64997;SHT31;51545;51.568;6.998;2023-07-31T06:02:53;16.53;99.99
64997;SHT31;51545;51.568;6.998;2023-07-31T06:05:18;16.43;99.99
64997;SHT31;51545;51.568;6.998;2023-07-31T06:07:44;16.47;99.99
64997;SHT31;51545;51.568;6.998;2023-07-31T06:10:09;16.47;99.99
64997;SHT31;51545;51.568;6.998;2023-07-31T06:12:35;16.47;99.99
64997;SHT31;51545;51.568;6.998;2023-07-31T06:15:01;16.42;99.99
64997;SHT31;51545;51.568;6.998;2023-07-31T06:17:28;16.47;99.99
64997;SHT31;51545;51.568;6.998;2023-07-31T06:19:54;16.47;99.99
64997;SHT31;51545;51.568;6.998;2023-07-31T06:22:19;16.42;99.99
64997;SHT31;51545;51.568;6.998;2023-07-31T06:24:45;16.43;99.99
64997;SHT31;51545;51.568;6.998;2023-07-31T06:27:11;16.44;99.99
64997;SHT31;51545;51.568;6.998;2023-07-31T06:29:37;16.44;99.99
64997;SHT31;51545;51.568;6.998;2023-07-31T06:32:02;16.42;99.99
64997;SHT31;51545;51.568;6.998;2023-07-31T06:34:28;16.43;99.99
64997;SHT31;51545;51.568;6.998;2023-07-31T06:36:54;16.43;99.99
64997;SHT31;51545;51.568;6.998;2023-07-31T06:39:20;16.49;99.99
64997;SHT31;51545;51.568;6.998;2023-07-31T06:41:46;16.47;99.99
64997;SHT31;51545;51.568;6.998;2023-07-31T06:44:11;16.44;99.99
64997;SHT31;51545;51.568;6.998;2023-07-31T06:46:37;16.52;99.99
64997;SHT31;51545;51.568;6.998;2023-07-31T06:49:02;16.60;99.99
64997;SHT31;51545;51.568;6.998;2023-07-31T06:51:28;16.60;99.99
64997;SHT31;51545;51.568;6.998;2023-07-31T06:53:53;16.59;99.99
64997;SHT31;51545;51.568;6.998;2023-07-31T06:56:20;16.60;99.99
64997;SHT31;51545;51.568;6.998;2023-07-31T06:58:46;16.67;99.99
64997;SHT31;51545;51.568;6.998;2023-07-31T07:01:11;16.67;99.99
64997;SHT31;51545;51.568;6.998;2023-07-31T07:03:37;16.67;99.99
64997;SHT31;51545;51.568;6.998;2023-07-31T07:06:02;16.77;99.99
64997;SHT31;51545;51.568;6.998;2023-07-31T07:08:28;16.74;99.99
64997;SHT31;51545;51.568;6.998;2023-07-31T07:10:54;16.67;99.99
64997;SHT31;51545;51.568;6.998;2023-07-31T07:13:20;16.64;99.99
64997;SHT31;51545;51.568;6.998;2023-07-31T07:15:49;16.61;99.99
64997;SHT31;51545;51.568;6.998;2023-07-31T07:18:15;16.60;99.99
64997;SHT31;51545;51.568;6.998;2023-07-31T07:20:45;16.57;99.99
64997;SHT31;51545;51.568;6.998;2023-07-31T07:23:11;16.57;99.99
64997;SHT31;51545;51.568;6.998;2023-07-31T07:25:37;16.59;99.99
64997;SHT31;51545;51.568;6.998;2023-07-31T07:28:03;16.56;99.99
64997;SHT31;51545;51.568;6.998;2023-07-31T07:30:29;16.60;99.99
64997;SHT31;51545;51.568;6.998;2023-07-31T07:32:54;16.61;99.99
64997;SHT31;51545;51.568;6.998;2023-07-31T07:35:20;16.63;99.99
64997;SHT31;51545;51.568;6.998;2023-07-31T07:37:47;16.56;99.99
64997;SHT31;51545;51.568;6.998;2023-07-31T07:40:14;16.60;99.99
64997;SHT31;51545;51.568;6.998;2023-07-31T07:42:40;16.60;99.99
64997;SHT31;51545;51.568;6.998;2023-07-31T07:45:05;16.60;99.99
64997;SHT31;51545;51.568;6.998;2023-07-31T07:47:32;16.68;99.99
64997;SHT31;51545;51.568;6.998;2023-07-31T07:49:57;16.72;99.99
64997;SHT31;51545;51.568;6.998;2023-07-31T07:52:22;16.72;99.99
64997;SHT31;51545;51.568;6.998;2023-07-31T07:54:48;16.78;99.99
64997;SHT31;51545;51.568;6.998;2023-07-31T07:57:13;16.72;99.99
64997;SHT31;51545;51.568;6.998;2023-07-31T07:59:40;16.80;99.99
64997;SHT31;51545;51.568;6.998;2023-07-31T08:02:05;16.91;99.99
64997;SHT31;51545;51.568;6.998;2023-07-31T08:04:31;16.83;99.99
64997;SHT31;51545;51.568;6.998;2023-07-31T08:06:56;16.71;99.99
64997;SHT31;51545;51.568;6.998;2023-07-31T08:09:22;16.63;99.99
64997;SHT31;51545;51.568;6.998;2023-07-31T08:11:47;16.60;99.99
64997;SHT31;51545;51.568;6.998;2023-07-31T08:14:13;16.65;99.99
64997;SHT31;51545;51.568;6.998;2023-07-31T08:16:42;16.57;99.99
64997;SHT31;51545;51.568;6.998;2023-07-31T08:19:13;16.57;99.99
64997;SHT31;51545;51.568;6.998;2023-07-31T08:21:42;16.68;99.99
64997;SHT31;51545;51.568;6.998;2023-07-31T08:24:12;16.53;99.99
64997;SHT31;51545;51.568;6.998;2023-07-31T08:26:44;16.44;99.99
64997;SHT31;51545;51.568;6.998;2023-07-31T08:29:16;16.44;99.99
64997;SHT31;51545;51.568;6.998;2023-07-31T08:31:47;16.40;99.99
64997;SHT31;51545;51.568;6.998;2023-07-31T08:34:19;16.39;99.99
64997;SHT31;51545;51.568;6.998;2023-07-31T08:36:48;16.39;99.99
64997;SHT31;51545;51.568;6.998;2023-07-31T08:39:14;16.36;99.99
64997;SHT31;51545;51.568;6.998;2023-07-31T08:41:39;16.43;99.99
64997;SHT31;51545;51.568;6.998;2023-07-31T08:44:06;16.37;99.99
64997;SHT31;51545;51.568;6.998;2023-07-31T08:46:32;16.35;99.99
64997;SHT31;51545;51.568;6.998;2023-07-31T08:48:59;16.36;99.99
64997;SHT31;51545;51.568;6.998;2023-07-31T08:51:26;16.42;99.99
64997;SHT31;51545;51.568;6.998;2023-07-31T08:53:52;16.35;99.99
64997;SHT31;51545;51.568;6.998;2023-07-31T08:56:18;16.36;99.99
64997;SHT31;51545;51.568;6.998;2023-07-31T08:58:44;16.37;99.99
64997;SHT31;51545;51.568;6.998;2023-07-31T09:01:11;16.33;99.99
64997;SHT31;51545;51.568;6.998;2023-07-31T09:03:38;16.32;99.99
64997;SHT31;51545;51.568;6.998;2023-07-31T09:06:04;16.35;99.99
64997;SHT31;51545;51.568;6.998;2023-07-31T09:08:31;16.39;99.99
64997;SHT31;51545;51.568;6.998;2023-07-31T09:11:01;16.35;99.99
64997;SHT31;51545;51.568;6.998;2023-07-31T09:13:30;16.39;99.99
64997;SHT31;51545;51.568;6.998;2023-07-31T09:15:57;16.39;99.99
64997;SHT31;51545;51.568;6.998;2023-07-31T09:18:22;16.44;99.99
64997;SHT31;51545;51.568;6.998;2023-07-31T09:21:03;16.50;99.99
64997;SHT31;51545;51.568;6.998;2023-07-31T09:26:11;16.53;99.99
64997;SHT31;51545;51.568;6.998;2023-07-31T09:28:53;16.54;99.99
64997;SHT31;51545;51.568;6.998;2023-07-31T09:31:30;16.57;99.99
64997;SHT31;51545;51.568;6.998;2023-07-31T09:34:06;16.60;99.99
64997;SHT31;51545;51.568;6.998;2023-07-31T09:36:32;16.60;99.99
64997;SHT31;51545;51.568;6.998;2023-07-31T09:39:07;16.60;99.99
64997;SHT31;51545;51.568;6.998;2023-07-31T09:41:44;16.49;99.99
64997;SHT31;51545;51.568;6.998;2023-07-31T09:44:18;16.54;99.99
64997;SHT31;51545;51.568;6.998;2023-07-31T09:46:44;16.64;99.99
64997;SHT31;51545;51.568;6.998;2023-07-31T09:49:11;16.63;99.99
64997;SHT31;51545;51.568;6.998;2023-07-31T09:51:38;16.70;99.99
64997;SHT31;51545;51.568;6.998;2023-07-31T09:54:14;16.71;99.99
64997;SHT31;51545;51.568;6.998;2023-07-31T09:56:44;16.63;99.99
64997;SHT31;51545;51.568;6.998;2023-07-31T09:59:12;16.64;99.99
64997;SHT31;51545;51.568;6.998;2023-07-31T10:01:39;16.61;99.99
64997;SHT31;51545;51.568;6.998;2023-07-31T10:04:07;16.72;99.99
64997;SHT31;51545;51.568;6.998;2023-07-31T10:06:34;16.65;99.99
64997;SHT31;51545;51.568;6.998;2023-07-31T10:09:01;16.75;99.99
64997;SHT31;51545;51.568;6.998;2023-07-31T10:11:37;16.75;99.99
64997;SHT31;51545;51.568;6.998;2023-07-31T10:14:07;16.74;99.99
64997;SHT31;51545;51.568;6.998;2023-07-31T10:16:33;16.84;99.99
64997;SHT31;51545;51.568;6.998;2023-07-31T10:19:00;16.88;99.99
64997;SHT31;51545;51.568;6.998;2023-07-31T10:21:27;16.83;99.99
64997;SHT31;51545;51.568;6.998;2023-07-31T10:23:53;16.83;99.99
64997;SHT31;51545;51.568;6.998;2023-07-31T10:26:20;16.92;99.99
64997;SHT31;51545;51.568;6.998;2023-07-31T10:28:50;16.81;99.99
64997;SHT31;51545;51.568;6.998;2023-07-31T10:31:17;16.80;99.99
64997;SHT31;51545;51.568;6.998;2023-07-31T10:33:44;16.83;99.99
64997;SHT31;51545;51.568;6.998;2023-07-31T10:36:14;16.78;99.99
64997;SHT31;51545;51.568;6.998;2023-07-31T10:38:42;16.77;99.99
64997;SHT31;51545;51.568;6.998;2023-07-31T10:41:08;16.80;99.99
64997;SHT31;51545;51.568;6.998;2023-07-31T10:43:35;16.94;99.99
64997;SHT31;51545;51.568;6.998;2023-07-31T10:46:06;16.87;99.99
64997;SHT31;51545;51.568;6.998;2023-07-31T10:48:33;16.92;99.99
64997;SHT31;51545;51.568;6.998;2023-07-31T10:51:00;16.97;99.99
64997;SHT31;51545;51.568;6.998;2023-07-31T10:53:33;16.99;99.99
64997;SHT31;51545;51.568;6.998;2023-07-31T10:55:59;17.01;99.99
64997;SHT31;51545;51.568;6.998;2023-07-31T10:58:29;17.11;99.99
64997;SHT31;51545;51.568;6.998;2023-07-31T11:00:57;17.16;99.99
64997;SHT31;51545;51.568;6.998;2023-07-31T11:03:47;17.27;99.99
64997;SHT31;51545;51.568;6.998;2023-07-31T11:06:17;17.27;99.99
64997;SHT31;51545;51.568;6.998;2023-07-31T11:08:47;17.29;99.99
64997;SHT31;51545;51.568;6.998;2023-07-31T11:11:17;17.32;99.99
64997;SHT31;51545;51.568;6.998;2023-07-31T11:16:18;17.37;99.99
64997;SHT31;51545;51.568;6.998;2023-07-31T11:18:46;17.30;99.99
64997;SHT31;51545;51.568;6.998;2023-07-31T11:21:23;17.30;99.99
64997;SHT31;51545;51.568;6.998;2023-07-31T11:23:53;17.40;99.99
64997;SHT31;51545;51.568;6.998;2023-07-31T11:26:22;17.46;99.63
64997;SHT31;51545;51.568;6.998;2023-07-31T11:28:49;17.49;99.83
64997;SHT31;51545;51.568;6.998;2023-07-31T11:31:16;17.46;99.65
64997;SHT31;51545;51.568;6.998;2023-07-31T11:33:42;17.51;99.93
64997;SHT31;51545;51.568;6.998;2023-07-31T11:36:15;17.53;99.56
64997;SHT31;51545;51.568;6.998;2023-07-31T11:38:42;17.49;99.53
64997;SHT31;51545;51.568;6.998;2023-07-31T11:41:08;17.50;99.64
64997;SHT31;51545;51.568;6.998;2023-07-31T11:43:33;17.51;99.79
64997;SHT31;51545;51.568;6.998;2023-07-31T11:46:01;17.63;99.56
64997;SHT31;51545;51.568;6.998;2023-07-31T11:48:36;17.69;99.54
64997;SHT31;51545;51.568;6.998;2023-07-31T11:51:06;17.78;99.90
64997;SHT31;51545;51.568;6.998;2023-07-31T11:53:44;17.81;99.99
64997;SHT31;51545;51.568;6.998;2023-07-31T11:56:19;17.78;99.99
64997;SHT31;51545;51.568;6.998;2023-07-31T11:58:46;17.69;99.99
64997;SHT31;51545;51.568;6.998;2023-07-31T12:01:17;17.74;99.99
64997;SHT31;51545;51.568;6.998;2023-07-31T12:03:45;17.80;99.99
64997;SHT31;51545;51.568;6.998;2023-07-31T12:06:11;17.74;99.99
64997;SHT31;51545;51.568;6.998;2023-07-31T12:08:37;17.70;99.99
64997;SHT31;51545;51.568;6.998;2023-07-31T12:11:03;17.78;99.99
64997;SHT31;51545;51.568;6.998;2023-07-31T12:13:30;17.69;99.82
64997;SHT31;51545;51.568;6.998;2023-07-31T12:15:57;17.75;99.99
64997;SHT31;51545;51.568;6.998;2023-07-31T12:18:29;17.80;99.86
64997;SHT31;51545;51.568;6.998;2023-07-31T12:21:00;17.71;99.45
64997;SHT31;51545;51.568;6.998;2023-07-31T12:23:29;17.81;99.99
64997;SHT31;51545;51.568;6.998;2023-07-31T12:26:07;17.73;99.77
64997;SHT31;51545;51.568;6.998;2023-07-31T12:31:09;17.71;99.77
64997;SHT31;51545;51.568;6.998;2023-07-31T12:33:36;17.73;99.99
64997;SHT31;51545;51.568;6.998;2023-07-31T12:36:08;17.70;99.88
64997;SHT31;51545;51.568;6.998;2023-07-31T12:38:35;17.77;99.99
64997;SHT31;51545;51.568;6.998;2023-07-31T12:41:01;17.74;99.99
64997;SHT31;51545;51.568;6.998;2023-07-31T12:43:26;17.81;99.99
64997;SHT31;51545;51.568;6.998;2023-07-31T12:45:53;17.78;99.91
64997;SHT31;51545;51.568;6.998;2023-07-31T12:48:20;17.87;99.78
64997;SHT31;51545;51.568;6.998;2023-07-31T12:50:46;17.91;99.36
64997;SHT31;51545;51.568;6.998;2023-07-31T12:53:11;17.88;99.26
64997;SHT31;51545;51.568;6.998;2023-07-31T12:55:37;17.87;99.65
64997;SHT31;51545;51.568;6.998;2023-07-31T12:58:03;17.85;99.59
64997;SHT31;51545;51.568;6.998;2023-07-31T13:00:29;17.97;99.58
64997;SHT31;51545;51.568;6.998;2023-07-31T13:02:55;18.15;99.31
64997;SHT31;51545;51.568;6.998;2023-07-31T13:05:20;18.12;98.48
64997;SHT31;51545;51.568;6.998;2023-07-31T13:07:46;18.12;98.90
64997;SHT31;51545;51.568;6.998;2023-07-31T13:10:12;18.10;98.97
64997;SHT31;51545;51.568;6.998;2023-07-31T13:12:38;18.09;99.32
64997;SHT31;51545;51.568;6.998;2023-07-31T13:15:04;17.97;99.54
64997;SHT31;51545;51.568;6.998;2023-07-31T13:17:31;17.99;99.68
64997;SHT31;51545;51.568;6.998;2023-07-31T13:19:56;18.06;99.99
64997;SHT31;51545;51.568;6.998;2023-07-31T13:22:22;18.18;99.70
64997;SHT31;51545;51.568;6.998;2023-07-31T13:24:47;18.33;99.11
64997;SHT31;51545;51.568;6.998;2023-07-31T13:27:13;18.33;98.59
64997;SHT31;51545;51.568;6.998;2023-07-31T13:29:43;18.34;98.79
64997;SHT31;51545;51.568;6.998;2023-07-31T13:32:08;18.29;99.17
64997;SHT31;51545;51.568;6.998;2023-07-31T13:34:34;18.20;98.86
64997;SHT31;51545;51.568;6.998;2023-07-31T13:36:59;18.10;99.07
64997;SHT31;51545;51.568;6.998;2023-07-31T13:39:25;18.13;98.95
64997;SHT31;51545;51.568;6.998;2023-07-31T13:41:50;18.10;99.14
64997;SHT31;51545;51.568;6.998;2023-07-31T13:44:16;18.06;99.26
64997;SHT31;51545;51.568;6.998;2023-07-31T13:46:41;18.05;98.98
64997;SHT31;51545;51.568;6.998;2023-07-31T13:49:09;18.09;98.78
64997;SHT31;51545;51.568;6.998;2023-07-31T13:51:40;18.05;98.77
64997;SHT31;51545;51.568;6.998;2023-07-31T13:54:13;18.10;98.88
64997;SHT31;51545;51.568;6.998;2023-07-31T13:56:44;18.10;98.71
64997;SHT31;51545;51.568;6.998;2023-07-31T13:59:16;18.08;99.01
64997;SHT31;51545;51.568;6.998;2023-07-31T14:01:47;18.18;98.95
64997;SHT31;51545;51.568;6.998;2023-07-31T14:04:19;18.26;98.88
64997;SHT31;51545;51.568;6.998;2023-07-31T14:06:51;18.23;98.44
64997;SHT31;51545;51.568;6.998;2023-07-31T14:09:20;18.18;98.22
64997;SHT31;51545;51.568;6.998;2023-07-31T14:11:45;18.25;98.16
64997;SHT31;51545;51.568;6.998;2023-07-31T14:14:11;18.37;97.87
64997;SHT31;51545;51.568;6.998;2023-07-31T14:16:37;18.63;97.69
64997;SHT31;51545;51.568;6.998;2023-07-31T14:19:03;18.74;97.42
64997;SHT31;51545;51.568;6.998;2023-07-31T14:21:28;19.15;96.49
64997;SHT31;51545;51.568;6.998;2023-07-31T14:23:54;19.60;95.20
64997;SHT31;51545;51.568;6.998;2023-07-31T14:26:19;19.42;94.22
64997;SHT31;51545;51.568;6.998;2023-07-31T14:28:45;19.49;94.73
64997;SHT31;51545;51.568;6.998;2023-07-31T14:31:10;19.33;94.73
64997;SHT31;51545;51.568;6.998;2023-07-31T14:33:35;19.37;94.81
64997;SHT31;51545;51.568;6.998;2023-07-31T14:36:01;19.20;94.26
64997;SHT31;51545;51.568;6.998;2023-07-31T14:38:27;19.20;94.70
64997;SHT31;51545;51.568;6.998;2023-07-31T14:40:52;19.16;94.86
64997;SHT31;51545;51.568;6.998;2023-07-31T14:43:18;19.03;94.94
64997;SHT31;51545;51.568;6.998;2023-07-31T14:45:43;18.98;94.63
64997;SHT31;51545;51.568;6.998;2023-07-31T14:48:09;18.96;95.53
64997;SHT31;51545;51.568;6.998;2023-07-31T14:50:34;18.96;95.17
64997;SHT31;51545;51.568;6.998;2023-07-31T14:53:00;18.88;95.59
64997;SHT31;51545;51.568;6.998;2023-07-31T14:55:25;18.82;95.24
64997;SHT31;51545;51.568;6.998;2023-07-31T14:57:51;18.74;96.00
64997;SHT31;51545;51.568;6.998;2023-07-31T15:00:16;18.70;96.51
64997;SHT31;51545;51.568;6.998;2023-07-31T15:02:42;18.60;96.54
64997;SHT31;51545;51.568;6.998;2023-07-31T15:05:08;18.56;96.80
64997;SHT31;51545;51.568;6.998;2023-07-31T15:07:34;18.52;96.64
64997;SHT31;51545;51.568;6.998;2023-07-31T15:10:00;18.44;96.85
64997;SHT31;51545;51.568;6.998;2023-07-31T15:12:27;18.40;97.26
64997;SHT31;51545;51.568;6.998;2023-07-31T15:14:53;18.30;97.90
64997;SHT31;51545;51.568;6.998;2023-07-31T15:17:21;18.26;98.70
64997;SHT31;51545;51.568;6.998;2023-07-31T15:19:49;18.12;99.02
64997;SHT31;51545;51.568;6.998;2023-07-31T15:22:15;18.12;99.92
64997;SHT31;51545;51.568;6.998;2023-07-31T15:24:40;18.05;99.88
64997;SHT31;51545;51.568;6.998;2023-07-31T15:27:06;18.02;99.99
64997;SHT31;51545;51.568;6.998;2023-07-31T15:29:33;18.01;99.99
64997;SHT31;51545;51.568;6.998;2023-07-31T15:32:01;17.97;99.99
64997;SHT31;51545;51.568;6.998;2023-07-31T15:34:29;18.05;99.99
64997;SHT31;51545;51.568;6.998;2023-07-31T15:36:55;18.01;99.94
64997;SHT31;51545;51.568;6.998;2023-07-31T15:39:20;18.01;99.99